Time;durP1;ratioP1;P1;durP2;ratioP2;P2;SDS_P1;SDS_P2;PMS_P1;PMS_P2;Temp;Humidity;BMP_temperature;BMP_pressure;BME280_temperature;BME280_humidity;BME280_pressure;Samples;Min_cycle;Max_cycle;Signal;HPM_P1;HPM_P2
2022/12/13 00:02:20;;;;;;;18.37;8.57;;;;;;;;;;4939835;29;20039;-74
2022/12/13 00:04:46;;;;;;;14.47;7.83;;;;;;;;;;4922840;29;20035;-73
2022/12/13 00:07:13;;;;;;;16.77;8.30;;;;;;;;;;4954533;29;20063;-74
2022/12/13 00:09:41;;;;;;;16.77;8.20;;;;;;;;;;4938389;29;20027;-73
2022/12/13 00:12:06;;;;;;;16.47;8.37;;;;;;;;;;4954689;29;20051;-73
2022/12/13 00:14:32;;;;;;;15.50;8.53;;;;;;;;;;4938482;29;20053;-73
2022/12/13 00:16:58;;;;;;;16.27;7.83;;;;;;;;;;4922092;29;20039;-73
2022/12/13 00:19:23;;;;;;;16.20;8.63;;;;;;;;;;4923259;29;20090;-72
2022/12/13 00:21:49;;;;;;;15.73;8.83;;;;;;;;;;4924597;29;20046;-72
2022/12/13 00:24:15;;;;;;;12.33;7.13;;;;;;;;;;4940346;29;20045;-72
2022/12/13 00:26:42;;;;;;;13.77;7.73;;;;;;;;;;4924564;29;20043;-72
2022/12/13 00:29:12;;;;;;;13.07;8.27;;;;;;;;;;4924853;29;20038;-72
2022/12/13 00:31:38;;;;;;;13.33;7.80;;;;;;;;;;4940614;29;20488;-72
2022/12/13 00:34:04;;;;;;;14.10;7.70;;;;;;;;;;4924657;29;20062;-72
2022/12/13 00:36:30;;;;;;;13.00;7.63;;;;;;;;;;4924075;29;20055;-72
2022/12/13 00:39:01;;;;;;;13.87;7.93;;;;;;;;;;4923937;29;20146;-72
2022/12/13 00:41:29;;;;;;;13.57;7.60;;;;;;;;;;4940072;29;20046;-72
2022/12/13 00:43:55;;;;;;;14.00;8.27;;;;;;;;;;4924438;29;20050;-72
2022/12/13 00:46:24;;;;;;;16.90;8.87;;;;;;;;;;4940041;29;20027;-72
2022/12/13 00:48:52;;;;;;;19.50;8.60;;;;;;;;;;4939963;29;20039;-73
2022/12/13 00:51:18;;;;;;;18.03;9.53;;;;;;;;;;4939946;29;20047;-72
2022/12/13 00:53:44;;;;;;;18.27;9.30;;;;;;;;;;4924155;29;20050;-73
2022/12/13 00:56:11;;;;;;;18.93;8.70;;;;;;;;;;4924284;29;20051;-73
2022/12/13 00:58:40;;;;;;;17.30;9.00;;;;;;;;;;4940683;29;20106;-74
2022/12/13 01:01:07;;;;;;;17.10;8.13;;;;;;;;;;4924301;29;20027;-73
2022/12/13 01:03:38;;;;;;;20.80;9.37;;;;;;;;;;4924720;29;20038;-72
2022/12/13 01:06:09;;;;;;;20.60;9.73;;;;;;;;;;4923940;29;20267;-73
2022/12/13 01:08:34;;;;;;;16.90;8.38;;;;;;;;;;4923439;28;20504;-73
2022/12/13 01:11:00;;;;;;;17.33;9.33;;;;;;;;;;4923561;29;20043;-73
2022/12/13 01:13:26;;;;;;;22.70;9.93;;;;;;;;;;4955683;29;20355;-72
2022/12/13 01:15:51;;;;;;;22.90;10.33;;;;;;;;;;4939494;29;20047;-73
2022/12/13 01:18:17;;;;;;;18.07;9.47;;;;;;;;;;4939238;29;20039;-72
2022/12/13 01:20:56;;;;;;;21.93;10.07;;;;;;;;;;4923389;29;20095;-73
2022/12/13 01:23:21;;;;;;;22.67;9.73;;;;;;;;;;4956421;29;20054;-72
2022/12/13 01:25:48;;;;;;;20.67;9.90;;;;;;;;;;4923482;29;20355;-74
2022/12/13 01:28:14;;;;;;;20.83;10.17;;;;;;;;;;4939415;29;20488;-72
2022/12/13 01:30:39;;;;;;;22.60;11.57;;;;;;;;;;4923591;29;20031;-72
2022/12/13 01:33:05;;;;;;;23.63;10.17;;;;;;;;;;4923345;29;20496;-72
2022/12/13 01:35:33;;;;;;;21.83;10.63;;;;;;;;;;4939155;29;20469;-73
2022/12/13 01:37:59;;;;;;;20.17;9.70;;;;;;;;;;4939019;29;20381;-72
2022/12/13 01:40:24;;;;;;;20.23;9.63;;;;;;;;;;4938831;29;20482;-72
2022/12/13 01:42:50;;;;;;;19.00;9.43;;;;;;;;;;4954878;29;20039;-72
2022/12/13 01:45:16;;;;;;;21.53;10.43;;;;;;;;;;4938976;29;20047;-72
2022/12/13 01:47:47;;;;;;;20.80;10.33;;;;;;;;;;4923225;29;20043;-71
2022/12/13 01:50:21;;;;;;;23.77;9.67;;;;;;;;;;4954657;29;20097;-72
2022/12/13 01:52:47;;;;;;;20.97;9.47;;;;;;;;;;4922722;29;20135;-73
2022/12/13 01:55:17;;;;;;;18.20;9.70;;;;;;;;;;4954564;29;20051;-72
2022/12/13 01:57:44;;;;;;;18.60;9.33;;;;;;;;;;4938258;29;20131;-72
2022/12/13 02:00:10;;;;;;;22.17;10.03;;;;;;;;;;4954087;28;20382;-73
2022/12/13 02:02:36;;;;;;;19.80;9.80;;;;;;;;;;4920740;29;20103;-73
2022/12/13 02:05:04;;;;;;;20.53;9.43;;;;;;;;;;4936304;29;20039;-73
2022/12/13 02:07:32;;;;;;;23.40;10.50;;;;;;;;;;4936438;29;20043;-72
2022/12/13 02:10:00;;;;;;;20.90;9.67;;;;;;;;;;4920392;29;20470;-72
2022/12/13 02:12:27;;;;;;;20.80;8.87;;;;;;;;;;4920390;29;20509;-74
2022/12/13 02:14:53;;;;;;;21.80;9.20;;;;;;;;;;4937699;29;20138;-73
2022/12/13 02:17:19;;;;;;;16.80;8.47;;;;;;;;;;4922300;29;20047;-74
2022/12/13 02:19:57;;;;;;;19.70;9.63;;;;;;;;;;4954458;29;20098;-73
2022/12/13 02:22:23;;;;;;;15.90;9.30;;;;;;;;;;4921768;29;20039;-72
2022/12/13 02:25:03;;;;;;;20.33;9.13;;;;;;;;;;4922729;29;20129;-72
2022/12/13 02:27:30;;;;;;;20.42;8.13;;;;;;;;;;4954295;29;20070;-74
2022/12/13 02:30:16;;;;;;;16.07;9.00;;;;;;;;;;4922375;29;20074;-74
2022/12/13 02:32:48;;;;;;;17.90;9.97;;;;;;;;;;4928497;29;20065;-73
2022/12/13 02:35:22;;;;;;;14.87;8.17;;;;;;;;;;4922463;29;20047;-74
2022/12/13 02:37:59;;;;;;;15.60;8.10;;;;;;;;;;4922347;29;20521;-74
2022/12/13 02:40:32;;;;;;;14.30;8.40;;;;;;;;;;4954132;29;20082;-74
2022/12/13 02:43:04;;;;;;;18.43;8.27;;;;;;;;;;4937939;29;20067;-73
2022/12/13 02:45:38;;;;;;;14.07;7.70;;;;;;;;;;4922132;29;20037;-73
2022/12/13 02:48:04;;;;;;;17.37;8.43;;;;;;;;;;4953792;29;20477;-73
2022/12/13 02:50:31;;;;;;;16.07;8.00;;;;;;;;;;4937806;29;20038;-74
2022/12/13 02:52:58;;;;;;;16.50;8.37;;;;;;;;;;4937815;29;20094;-73
2022/12/13 02:55:25;;;;;;;16.63;8.80;;;;;;;;;;4937774;29;20138;-74
2022/12/13 02:57:51;;;;;;;15.63;8.67;;;;;;;;;;4921946;29;20466;-73
2022/12/13 03:00:22;;;;;;;15.03;8.10;;;;;;;;;;4921947;29;20035;-73
2022/12/13 03:03:09;;;;;;;17.23;8.83;;;;;;;;;;4922027;29;20067;-78
2022/12/13 03:08:34;;;;;;;16.23;8.00;;;;;;;;;;4937389;29;20490;-73
2022/12/13 03:11:08;;;;;;;15.67;8.23;;;;;;;;;;4937225;29;20497;-74
2022/12/13 03:13:54;;;;;;;16.70;7.73;;;;;;;;;;4921539;29;20040;-73
2022/12/13 03:16:26;;;;;;;17.63;7.93;;;;;;;;;;4921304;29;20138;-75
2022/12/13 03:18:53;;;;;;;17.50;8.27;;;;;;;;;;4921748;29;20102;-74
2022/12/13 03:21:24;;;;;;;19.67;8.13;;;;;;;;;;4937506;29;20045;-74
2022/12/13 03:23:50;;;;;;;15.87;7.73;;;;;;;;;;4937213;29;20042;-75
2022/12/13 03:26:18;;;;;;;16.43;8.27;;;;;;;;;;4953334;29;20042;-74
2022/12/13 03:28:44;;;;;;;16.20;8.03;;;;;;;;;;4953266;29;20466;-74
2022/12/13 03:31:10;;;;;;;20.83;8.33;;;;;;;;;;4921140;29;20137;-73
2022/12/13 03:33:37;;;;;;;18.00;9.03;;;;;;;;;;4920758;29;20043;-74
2022/12/13 03:36:03;;;;;;;17.27;7.77;;;;;;;;;;4921045;29;20070;-74
2022/12/13 03:38:29;;;;;;;19.67;8.87;;;;;;;;;;4921167;29;20090;-73
2022/12/13 03:41:01;;;;;;;20.83;8.57;;;;;;;;;;4920828;29;20051;-73
2022/12/13 03:43:27;;;;;;;17.73;8.35;;;;;;;;;;4921123;29;20035;-73
2022/12/13 03:45:53;;;;;;;25.33;8.90;;;;;;;;;;4921079;29;20039;-74
2022/12/13 03:48:20;;;;;;;20.57;9.20;;;;;;;;;;4921161;29;20041;-74
2022/12/13 03:50:46;;;;;;;18.73;9.33;;;;;;;;;;4937172;29;20464;-74
2022/12/13 03:53:12;;;;;;;20.13;9.77;;;;;;;;;;4920934;29;20075;-74
2022/12/13 03:55:38;;;;;;;21.30;9.97;;;;;;;;;;4920915;29;20051;-74
2022/12/13 03:58:06;;;;;;;20.57;9.33;;;;;;;;;;4921084;29;20098;-74
2022/12/13 04:00:31;;;;;;;19.77;9.37;;;;;;;;;;4920674;29;20039;-72
2022/12/13 04:02:58;;;;;;;17.20;8.90;;;;;;;;;;4936878;29;20062;-72
2022/12/13 04:05:24;;;;;;;23.77;9.57;;;;;;;;;;4920649;29;20085;-71
2022/12/13 04:07:50;;;;;;;21.60;8.80;;;;;;;;;;4921294;29;20039;-71
2022/12/13 04:10:15;;;;;;;22.57;9.70;;;;;;;;;;4920838;29;20031;-72
2022/12/13 04:15:25;;;;;;;18.63;9.50;;;;;;;;;;4936591;29;20078;-72
2022/12/13 04:17:51;;;;;;;19.10;9.93;;;;;;;;;;4921451;29;20093;-74
2022/12/13 04:20:17;;;;;;;17.53;8.60;;;;;;;;;;4921297;29;20035;-73
2022/12/13 04:22:44;;;;;;;21.00;9.70;;;;;;;;;;4937045;29;20142;-73
2022/12/13 04:25:10;;;;;;;16.53;9.13;;;;;;;;;;4920651;29;20121;-75
2022/12/13 04:27:36;;;;;;;16.43;9.07;;;;;;;;;;4937197;29;20035;-74
2022/12/13 04:30:05;;;;;;;23.07;9.33;;;;;;;;;;4920838;29;20038;-76
2022/12/13 04:32:31;;;;;;;20.97;9.43;;;;;;;;;;4936836;29;20066;-71
2022/12/13 04:34:56;;;;;;;22.93;9.20;;;;;;;;;;4920873;29;20085;-72
2022/12/13 04:37:22;;;;;;;23.13;9.90;;;;;;;;;;4922067;29;20130;-74
2022/12/13 04:39:48;;;;;;;23.33;9.83;;;;;;;;;;4941483;29;20066;-76
2022/12/13 04:42:14;;;;;;;19.93;9.13;;;;;;;;;;4953922;29;20506;-76
2022/12/13 04:44:40;;;;;;;23.60;10.20;;;;;;;;;;4922737;29;20489;-76
2022/12/13 04:47:05;;;;;;;24.80;10.13;;;;;;;;;;4924012;29;20047;-73
2022/12/13 04:49:32;;;;;;;25.40;10.90;;;;;;;;;;4924653;28;20359;-75
2022/12/13 04:51:57;;;;;;;23.83;10.30;;;;;;;;;;4939086;29;20035;-75
2022/12/13 04:54:23;;;;;;;23.63;10.77;;;;;;;;;;4921946;29;20035;-78
2022/12/13 04:56:49;;;;;;;22.63;10.63;;;;;;;;;;4923924;29;20046;-74
2022/12/13 04:59:15;;;;;;;19.77;10.20;;;;;;;;;;4921612;29;20039;-74
2022/12/13 05:01:41;;;;;;;23.13;10.77;;;;;;;;;;4921495;28;20039;-74
2022/12/13 05:04:07;;;;;;;24.67;10.20;;;;;;;;;;4922351;29;20101;-73
2022/12/13 05:06:32;;;;;;;27.63;10.27;;;;;;;;;;4922820;29;20042;-80
2022/12/13 05:09:00;;;;;;;20.20;9.37;;;;;;;;;;4922989;28;20036;-75
2022/12/13 05:11:26;;;;;;;24.13;10.63;;;;;;;;;;4922601;29;20043;-74
2022/12/13 05:13:55;;;;;;;20.42;10.07;;;;;;;;;;4954653;28;20043;-74
2022/12/13 05:16:25;;;;;;;23.83;10.40;;;;;;;;;;4919267;28;20066;-74
2022/12/13 05:18:50;;;;;;;18.87;9.43;;;;;;;;;;4920852;29;20493;-74
2022/12/13 05:21:16;;;;;;;18.13;8.90;;;;;;;;;;4920253;29;20070;-73
2022/12/13 05:23:46;;;;;;;20.33;9.77;;;;;;;;;;4940875;29;20046;-75
2022/12/13 05:26:12;;;;;;;20.50;10.00;;;;;;;;;;4935969;28;20039;-74
2022/12/13 05:28:37;;;;;;;19.43;9.53;;;;;;;;;;4935929;29;20109;-73
2022/12/13 05:31:08;;;;;;;17.47;9.00;;;;;;;;;;4920140;29;20474;-72
2022/12/13 05:33:33;;;;;;;19.65;9.38;;;;;;;;;;4935630;28;20038;-73
2022/12/13 05:36:01;;;;;;;19.80;9.17;;;;;;;;;;4935893;29;20466;-75
2022/12/13 05:38:27;;;;;;;18.90;9.40;;;;;;;;;;4935922;28;20077;-74
2022/12/13 05:40:52;;;;;;;20.70;10.47;;;;;;;;;;4935733;29;20119;-72
2022/12/13 05:43:18;;;;;;;19.85;8.75;;;;;;;;;;4919955;28;20038;-74
2022/12/13 05:45:45;;;;;;;16.50;8.77;;;;;;;;;;4934118;29;20035;-72
2022/12/13 05:48:18;;;;;;;18.83;9.90;;;;;;;;;;4919315;28;20142;-74
2022/12/13 05:50:43;;;;;;;21.77;9.00;;;;;;;;;;4924819;29;20866;-73
2022/12/13 05:53:09;;;;;;;15.03;8.63;;;;;;;;;;4917815;29;20043;-74
2022/12/13 05:55:36;;;;;;;17.27;9.17;;;;;;;;;;4919426;29;20158;-72
2022/12/13 05:58:02;;;;;;;17.93;9.47;;;;;;;;;;4934747;29;20035;-73
2022/12/13 06:00:29;;;;;;;17.10;9.13;;;;;;;;;;4918697;29;20043;-73
2022/12/13 06:02:55;;;;;;;19.13;9.10;;;;;;;;;;4918926;29;20035;-75
2022/12/13 06:05:20;;;;;;;16.50;9.20;;;;;;;;;;4934982;29;20035;-72
2022/12/13 06:07:46;;;;;;;17.10;8.53;;;;;;;;;;4919587;29;20054;-72
2022/12/13 06:10:13;;;;;;;19.85;10.05;;;;;;;;;;4935420;29;20054;-74
2022/12/13 06:12:39;;;;;;;19.70;9.60;;;;;;;;;;4934510;28;20035;-72
2022/12/13 06:15:05;;;;;;;16.92;9.32;;;;;;;;;;4934851;29;20180;-73
2022/12/13 06:17:31;;;;;;;19.67;10.10;;;;;;;;;;4937344;28;20487;-72
2022/12/13 06:19:57;;;;;;;19.83;9.73;;;;;;;;;;4919369;29;20035;-72
2022/12/13 06:22:24;;;;;;;17.63;9.30;;;;;;;;;;4919571;28;20474;-71
2022/12/13 06:24:50;;;;;;;19.83;10.50;;;;;;;;;;4919552;29;20039;-73
2022/12/13 06:27:16;;;;;;;22.60;11.50;;;;;;;;;;4918278;29;20039;-73
2022/12/13 06:29:42;;;;;;;25.40;11.60;;;;;;;;;;4934518;29;20035;-73
2022/12/13 06:32:07;;;;;;;22.43;10.50;;;;;;;;;;4919302;29;20142;-73
2022/12/13 06:34:34;;;;;;;20.80;11.07;;;;;;;;;;4915829;29;20043;-73
2022/12/13 06:37:01;;;;;;;22.48;11.30;;;;;;;;;;4931549;29;20103;-72
2022/12/13 06:39:27;;;;;;;27.63;12.23;;;;;;;;;;4930750;29;20150;-71
2022/12/13 06:41:54;;;;;;;20.73;11.73;;;;;;;;;;4931659;29;20134;-72
2022/12/13 06:44:19;;;;;;;21.20;11.33;;;;;;;;;;4929750;29;20048;-71
2022/12/13 06:46:45;;;;;;;23.73;11.93;;;;;;;;;;4931310;29;20058;-72
2022/12/13 06:49:11;;;;;;;26.37;12.53;;;;;;;;;;4931237;29;20031;-73
2022/12/13 06:51:37;;;;;;;28.23;12.10;;;;;;;;;;4930869;29;20039;-74
2022/12/13 06:54:03;;;;;;;25.03;12.30;;;;;;;;;;4915484;29;20038;-72
2022/12/13 06:56:29;;;;;;;23.33;12.07;;;;;;;;;;4930974;29;20047;-71
2022/12/13 06:58:56;;;;;;;25.48;12.98;;;;;;;;;;4884931;29;20035;-71
2022/12/13 07:01:22;;;;;;;25.90;12.77;;;;;;;;;;4931243;29;20489;-72
2022/12/13 07:03:48;;;;;;;26.70;14.70;;;;;;;;;;4930622;29;20042;-72
2022/12/13 07:06:15;;;;;;;27.60;14.50;;;;;;;;;;4930886;29;20150;-72
2022/12/13 07:08:41;;;;;;;28.67;12.83;;;;;;;;;;4930434;29;20031;-71
2022/12/13 07:11:12;;;;;;;26.87;13.80;;;;;;;;;;4915112;29;20058;-72
2022/12/13 07:13:37;;;;;;;25.95;13.35;;;;;;;;;;4915572;29;20036;-71
2022/12/13 07:16:03;;;;;;;34.95;13.32;;;;;;;;;;4900501;29;20071;-73
2022/12/13 07:18:29;;;;;;;28.17;14.43;;;;;;;;;;4900245;29;20039;-72
2022/12/13 07:20:54;;;;;;;29.08;14.20;;;;;;;;;;4916262;29;20039;-72
2022/12/13 07:23:20;;;;;;;24.33;12.68;;;;;;;;;;4900482;29;20501;-73
2022/12/13 07:25:52;;;;;;;24.55;13.10;;;;;;;;;;4900100;29;20047;-75
2022/12/13 07:28:18;;;;;;;26.55;13.63;;;;;;;;;;4899992;29;20038;-72
2022/12/13 07:30:44;;;;;;;28.00;14.47;;;;;;;;;;4899624;29;20043;-77
2022/12/13 07:33:10;;;;;;;28.90;14.45;;;;;;;;;;4899487;29;20039;-73
2022/12/13 07:35:36;;;;;;;31.13;13.27;;;;;;;;;;4898805;29;20161;-71
2022/12/13 07:38:02;;;;;;;26.00;12.82;;;;;;;;;;4898761;29;20566;-73
2022/12/13 07:40:28;;;;;;;25.17;13.55;;;;;;;;;;4898112;29;20100;-73
2022/12/13 07:42:54;;;;;;;25.95;14.05;;;;;;;;;;4915177;29;20522;-72
2022/12/13 07:45:21;;;;;;;22.55;12.00;;;;;;;;;;4913158;29;20040;-74
2022/12/13 07:47:46;;;;;;;30.15;12.85;;;;;;;;;;4914929;29;20027;-75
2022/12/13 07:50:13;;;;;;;28.58;13.05;;;;;;;;;;4898995;29;20046;-75
2022/12/13 07:52:39;;;;;;;26.48;12.65;;;;;;;;;;4912681;28;20039;-74
2022/12/13 07:55:06;;;;;;;28.92;13.30;;;;;;;;;;4918003;29;20078;-74
2022/12/13 07:57:32;;;;;;;30.55;12.60;;;;;;;;;;4914595;29;20044;-75
2022/12/13 07:59:58;;;;;;;30.90;14.23;;;;;;;;;;4914480;29;20039;-75
2022/12/13 08:02:24;;;;;;;32.58;14.50;;;;;;;;;;4898894;29;20039;-75
2022/12/13 08:04:50;;;;;;;28.52;14.48;;;;;;;;;;4898413;29;20118;-76
2022/12/13 08:07:16;;;;;;;26.45;14.07;;;;;;;;;;4898528;29;20058;-75
2022/12/13 08:09:42;;;;;;;27.40;12.37;;;;;;;;;;4930234;29;20044;-75
2022/12/13 08:12:08;;;;;;;22.65;11.60;;;;;;;;;;4898171;29;20415;-75
2022/12/13 08:14:34;;;;;;;19.10;10.40;;;;;;;;;;4914446;29;20035;-73
2022/12/13 08:16:59;;;;;;;21.75;10.98;;;;;;;;;;4898534;29;20391;-76
2022/12/13 08:19:27;;;;;;;22.50;11.05;;;;;;;;;;4926978;28;20045;-79
2022/12/13 08:21:52;;;;;;;24.75;11.02;;;;;;;;;;4939274;28;20034;-75
2022/12/13 08:24:19;;;;;;;21.23;10.90;;;;;;;;;;4953934;28;20146;-78
2022/12/13 08:26:45;;;;;;;20.52;10.30;;;;;;;;;;4939318;28;20066;-73
2022/12/13 08:29:14;;;;;;;23.52;10.88;;;;;;;;;;4939134;28;20128;-73
2022/12/13 08:31:40;;;;;;;22.02;10.35;;;;;;;;;;4955261;28;20041;-74
2022/12/13 08:34:07;;;;;;;21.60;10.47;;;;;;;;;;4955550;28;20050;-75
2022/12/13 08:36:33;;;;;;;20.02;10.73;;;;;;;;;;4940252;28;20047;-76
2022/12/13 08:39:01;;;;;;;19.83;10.43;;;;;;;;;;4940039;28;20045;-78
2022/12/13 08:41:28;;;;;;;27.45;12.20;;;;;;;;;;4971601;28;20125;-75
2022/12/13 08:43:53;;;;;;;24.10;10.47;;;;;;;;;;4952221;28;20035;-74
2022/12/13 08:46:19;;;;;;;22.90;9.90;;;;;;;;;;4912850;29;20051;-74
2022/12/13 08:48:45;;;;;;;24.30;10.77;;;;;;;;;;4932210;29;20110;-77
2022/12/13 08:51:12;;;;;;;23.20;11.03;;;;;;;;;;4917050;29;20107;-75
2022/12/13 08:53:38;;;;;;;24.27;10.90;;;;;;;;;;4933348;29;20077;-74
2022/12/13 08:56:04;;;;;;;38.53;10.65;;;;;;;;;;4905121;28;20112;-74
2022/12/13 08:58:30;;;;;;;88.07;12.23;;;;;;;;;;4969989;28;20060;-71
2022/12/13 09:00:56;;;;;;;57.20;11.02;;;;;;;;;;4954558;28;20618;-75
2022/12/13 09:03:22;;;;;;;52.75;11.48;;;;;;;;;;4954779;28;20034;-73
2022/12/13 09:05:50;;;;;;;77.07;13.40;;;;;;;;;;4955041;28;20101;-74
2022/12/13 09:08:16;;;;;;;40.03;10.70;;;;;;;;;;4938320;28;20953;-73
2022/12/13 09:10:43;;;;;;;226.73;17.15;;;;;;;;;;4938344;28;20046;-70
2022/12/13 09:13:08;;;;;;;282.88;16.00;;;;;;;;;;4937546;28;20043;-71
2022/12/13 09:15:37;;;;;;;1060.75;57.90;;;;;;;;;;4937730;28;20058;-73
2022/12/13 09:18:03;;;;;;;719.40;39.00;;;;;;;;;;4954378;28;20569;-69
2022/12/13 09:20:28;;;;;;;12.40;5.70;;;;;;;;;;4937690;28;20071;-70
2022/12/13 09:22:54;;;;;;;5.25;3.28;;;;;;;;;;4938366;28;20066;-69
2022/12/13 09:25:22;;;;;;;5.40;3.20;;;;;;;;;;4932541;28;20390;-70
2022/12/13 09:27:48;;;;;;;11.13;3.87;;;;;;;;;;4937600;28;20038;-72
2022/12/13 09:30:14;;;;;;;5.47;2.80;;;;;;;;;;4954273;28;20097;-71
2022/12/13 09:32:40;;;;;;;5.33;3.23;;;;;;;;;;4939346;28;20086;-71
2022/12/13 09:35:06;;;;;;;5.77;3.17;;;;;;;;;;4939026;28;20047;-72
2022/12/13 09:37:32;;;;;;;3.10;2.60;;;;;;;;;;4954506;28;20488;-70
2022/12/13 09:39:59;;;;;;;5.13;3.10;;;;;;;;;;4937879;28;20062;-71
2022/12/13 09:42:28;;;;;;;5.90;3.60;;;;;;;;;;4971285;28;20042;-71
2022/12/13 09:44:56;;;;;;;6.63;3.30;;;;;;;;;;4937417;28;20354;-70
2022/12/13 09:47:25;;;;;;;5.47;2.93;;;;;;;;;;4954499;28;20045;-70
2022/12/13 09:49:53;;;;;;;3.08;2.45;;;;;;;;;;4939219;28;20117;-69
2022/12/13 09:52:20;;;;;;;3.20;2.43;;;;;;;;;;4924284;29;20489;-70
2022/12/13 09:54:46;;;;;;;4.03;2.57;;;;;;;;;;4919415;29;20393;-70
2022/12/13 09:57:15;;;;;;;4.00;2.27;;;;;;;;;;4935802;29;20042;-71
2022/12/13 09:59:42;;;;;;;3.53;2.17;;;;;;;;;;4935648;29;20063;-69
2022/12/13 10:02:21;;;;;;;3.05;2.30;;;;;;;;;;4935474;29;20342;-70
2022/12/13 10:04:47;;;;;;;4.53;2.73;;;;;;;;;;4919228;29;20579;-72
2022/12/13 10:07:21;;;;;;;2.90;2.40;;;;;;;;;;4910484;29;20043;-70
2022/12/13 10:09:48;;;;;;;4.73;2.70;;;;;;;;;;4915720;29;20470;-71
2022/12/13 10:12:15;;;;;;;4.23;2.70;;;;;;;;;;4915136;29;20039;-70
2022/12/13 10:14:46;;;;;;;6.07;2.50;;;;;;;;;;4930853;29;20055;-73
2022/12/13 10:17:14;;;;;;;4.30;2.60;;;;;;;;;;4915901;29;20834;-70
2022/12/13 10:19:42;;;;;;;4.87;3.13;;;;;;;;;;4914645;29;20346;-69
2022/12/13 10:22:10;;;;;;;111.85;6.68;;;;;;;;;;4915186;29;20048;-69
2022/12/13 10:24:53;;;;;;;6.97;3.25;;;;;;;;;;4931295;29;20040;-69
2022/12/13 10:27:26;;;;;;;8.55;3.78;;;;;;;;;;4941266;28;20035;-70
2022/12/13 10:29:59;;;;;;;6.88;4.10;;;;;;;;;;4918704;29;20690;-71
2022/12/13 10:32:25;;;;;;;8.27;3.90;;;;;;;;;;4918278;28;20046;-71
2022/12/13 10:34:50;;;;;;;6.20;4.10;;;;;;;;;;4934302;29;20042;-71
2022/12/13 10:37:22;;;;;;;8.15;4.50;;;;;;;;;;4918023;29;20126;-70
2022/12/13 10:39:48;;;;;;;7.60;4.27;;;;;;;;;;4917779;29;20055;-71
2022/12/13 10:42:19;;;;;;;10.30;4.80;;;;;;;;;;4933169;29;20046;-69
2022/12/13 10:44:45;;;;;;;10.20;4.60;;;;;;;;;;4932934;29;20039;-70
2022/12/13 10:47:24;;;;;;;78.03;7.45;;;;;;;;;;4933661;29;20031;-70
2022/12/13 10:49:51;;;;;;;166.63;9.57;;;;;;;;;;4949988;28;20114;-70
2022/12/13 10:52:30;;;;;;;14.63;4.90;;;;;;;;;;4917505;29;20036;-71
2022/12/13 10:54:57;;;;;;;11.82;4.93;;;;;;;;;;4933493;29;20049;-74
2022/12/13 10:57:23;;;;;;;10.47;5.17;;;;;;;;;;4916815;29;20038;-72
2022/12/13 10:59:50;;;;;;;9.07;5.20;;;;;;;;;;4933521;29;20402;-70
2022/12/13 11:02:31;;;;;;;13.83;5.83;;;;;;;;;;4914373;29;20067;-71
2022/12/13 11:04:57;;;;;;;;;;;;;;;;;;4933260;29;20036;-71
2022/12/13 11:07:22;;;;;;;15.00;4.67;;;;;;;;;;4916829;29;19926;-70
2022/12/13 11:09:48;;;;;;;9.37;4.70;;;;;;;;;;4931737;29;20036;-72
2022/12/13 11:12:16;;;;;;;8.60;5.03;;;;;;;;;;4914440;29;20109;-70
2022/12/13 11:15:03;;;;;;;10.43;5.40;;;;;;;;;;4930283;29;20071;-70
2022/12/13 11:17:36;;;;;;;11.83;5.27;;;;;;;;;;4914551;29;20079;-72
2022/12/13 11:20:15;;;;;;;11.10;5.63;;;;;;;;;;4951538;28;20381;-71
2022/12/13 11:22:41;;;;;;;12.07;5.53;;;;;;;;;;4967002;28;20452;-72
2022/12/13 11:25:10;;;;;;;9.07;5.77;;;;;;;;;;4966674;28;20528;-72
2022/12/13 11:27:48;;;;;;;9.93;5.90;;;;;;;;;;4936410;28;20751;-72
2022/12/13 11:30:32;;;;;;;8.93;5.60;;;;;;;;;;4948378;28;20031;-70
2022/12/13 11:32:58;;;;;;;8.93;5.03;;;;;;;;;;4949852;28;20042;-72
2022/12/13 11:35:27;;;;;;;14.90;6.00;;;;;;;;;;4937455;28;20049;-72
2022/12/13 11:38:02;;;;;;;10.37;5.60;;;;;;;;;;4951601;28;20038;-72
2022/12/13 11:40:29;;;;;;;9.67;5.73;;;;;;;;;;4937840;28;20054;-72
2022/12/13 11:43:06;;;;;;;9.80;5.77;;;;;;;;;;4939211;28;20426;-71
2022/12/13 11:45:40;;;;;;;11.37;6.47;;;;;;;;;;4953951;28;20060;-72
2022/12/13 11:48:09;;;;;;;10.63;7.13;;;;;;;;;;4937715;28;20038;-72
2022/12/13 11:50:37;;;;;;;14.70;8.20;;;;;;;;;;4953489;28;20129;-72
2022/12/13 11:53:22;;;;;;;16.70;8.97;;;;;;;;;;4919222;29;20043;-72
2022/12/13 11:56:11;;;;;;;21.37;9.17;;;;;;;;;;4932293;29;20478;-73
2022/12/13 11:58:43;;;;;;;12.63;7.33;;;;;;;;;;4904932;29;20383;-72
2022/12/13 12:01:15;;;;;;;13.23;7.93;;;;;;;;;;4916960;29;20091;-73
2022/12/13 12:03:46;;;;;;;17.23;7.90;;;;;;;;;;4932711;29;20043;-72
2022/12/13 12:06:22;;;;;;;12.23;6.43;;;;;;;;;;4917064;29;20051;-73
2022/12/13 12:09:05;;;;;;;15.87;7.93;;;;;;;;;;4916729;29;20066;-73
2022/12/13 12:11:34;;;;;;;18.17;9.17;;;;;;;;;;4916355;29;20044;-72
2022/12/13 12:14:03;;;;;;;18.87;9.20;;;;;;;;;;4916820;29;20130;-73
2022/12/13 12:16:37;;;;;;;20.70;9.73;;;;;;;;;;4932491;29;20578;-73
2022/12/13 12:19:08;;;;;;;23.00;9.90;;;;;;;;;;4916989;29;20042;-73
2022/12/13 12:21:36;;;;;;;19.65;9.88;;;;;;;;;;4916979;29;20087;-73
2022/12/13 12:24:01;;;;;;;19.90;9.90;;;;;;;;;;4917166;29;20043;-72
2022/12/13 12:26:39;;;;;;;19.67;10.23;;;;;;;;;;4933661;29;20478;-73
2022/12/13 12:29:17;;;;;;;21.10;9.57;;;;;;;;;;4932819;29;20370;-72
2022/12/13 12:31:53;;;;;;;20.97;9.50;;;;;;;;;;4932321;29;20050;-73
2022/12/13 12:34:39;;;;;;;22.57;10.80;;;;;;;;;;4916554;29;20035;-73
2022/12/13 12:37:14;;;;;;;20.77;10.43;;;;;;;;;;4900462;29;20059;-73
2022/12/13 12:39:56;;;;;;;20.20;10.03;;;;;;;;;;4900594;29;20055;-73
2022/12/13 12:42:42;;;;;;;20.03;8.90;;;;;;;;;;4900962;29;20195;-74
2022/12/13 12:45:08;;;;;;;15.10;8.53;;;;;;;;;;4916693;29;20040;-74
2022/12/13 12:47:43;;;;;;;16.03;8.57;;;;;;;;;;4931766;29;20044;-72
2022/12/13 12:50:09;;;;;;;15.27;8.23;;;;;;;;;;4932544;29;20316;-75
2022/12/13 12:52:44;;;;;;;15.63;8.67;;;;;;;;;;4932654;29;20459;-74
2022/12/13 12:55:10;;;;;;;17.17;9.13;;;;;;;;;;4916670;29;20545;-74
2022/12/13 12:57:56;;;;;;;15.37;8.60;;;;;;;;;;4932130;29;20534;-74
2022/12/13 13:00:27;;;;;;;15.07;8.50;;;;;;;;;;4917265;29;20052;-74
2022/12/13 13:03:08;;;;;;;15.90;8.17;;;;;;;;;;4917140;29;20043;-75
2022/12/13 13:05:52;;;;;;;17.77;8.80;;;;;;;;;;4902452;29;20050;-75
2022/12/13 13:08:24;;;;;;;18.07;9.03;;;;;;;;;;4936520;29;20067;-75
2022/12/13 13:10:50;;;;;;;13.63;8.43;;;;;;;;;;4920158;29;20467;-75
2022/12/13 13:13:40;;;;;;;19.80;9.90;;;;;;;;;;4919130;29;20102;-74
2022/12/13 13:16:25;;;;;;;19.50;10.03;;;;;;;;;;4891250;29;20052;-75
2022/12/13 13:18:52;;;;;;;16.30;10.30;;;;;;;;;;4903652;29;20351;-77
2022/12/13 13:21:30;;;;;;;20.07;9.30;;;;;;;;;;4903627;29;20042;-74
2022/12/13 13:24:08;;;;;;;17.53;9.33;;;;;;;;;;4933817;29;20039;-76
2022/12/13 13:26:54;;;;;;;15.57;8.80;;;;;;;;;;4970050;28;20429;-74
2022/12/13 13:29:23;;;;;;;13.13;7.90;;;;;;;;;;4973111;28;20466;-74
2022/12/13 13:32:12;;;;;;;14.97;8.63;;;;;;;;;;4941497;28;20031;-74
2022/12/13 13:34:40;;;;;;;16.40;8.67;;;;;;;;;;4973367;28;20053;-74
2022/12/13 13:37:18;;;;;;;15.00;9.02;;;;;;;;;;4941247;28;20125;-74
2022/12/13 13:40:03;;;;;;;15.17;8.53;;;;;;;;;;4940838;28;20062;-74
2022/12/13 13:42:29;;;;;;;15.37;8.60;;;;;;;;;;4957587;28;20142;-74
2022/12/13 13:45:17;;;;;;;14.37;8.50;;;;;;;;;;4956377;28;20070;-72
2022/12/13 13:47:44;;;;;;;14.57;8.10;;;;;;;;;;4975103;28;20394;-73
2022/12/13 13:50:20;;;;;;;14.70;8.03;;;;;;;;;;4958197;28;20038;-73
2022/12/13 13:52:56;;;;;;;15.60;8.60;;;;;;;;;;4941814;29;20069;-72
2022/12/13 13:55:42;;;;;;;15.00;8.83;;;;;;;;;;4922810;29;20051;-73
2022/12/13 13:58:08;;;;;;;15.17;9.00;;;;;;;;;;4921356;29;20047;-72
2022/12/13 14:00:47;;;;;;;17.77;9.20;;;;;;;;;;4929516;29;20102;-72
2022/12/13 14:03:19;;;;;;;16.40;8.83;;;;;;;;;;4918951;29;20040;-76
2022/12/13 14:06:00;;;;;;;14.63;8.93;;;;;;;;;;4935307;29;20036;-75
2022/12/13 14:08:38;;;;;;;15.68;8.27;;;;;;;;;;4901772;29;20086;-74
2022/12/13 14:11:13;;;;;;;17.20;9.27;;;;;;;;;;4917196;29;20055;-73
2022/12/13 14:13:50;;;;;;;16.23;8.80;;;;;;;;;;4932973;29;20095;-75
2022/12/13 14:16:20;;;;;;;16.13;8.60;;;;;;;;;;4917766;29;20046;-72
2022/12/13 14:19:04;;;;;;;18.53;10.10;;;;;;;;;;4900105;29;20470;-73
2022/12/13 14:21:43;;;;;;;14.97;8.83;;;;;;;;;;4902298;29;20478;-74
2022/12/13 14:24:12;;;;;;;16.13;8.33;;;;;;;;;;4919335;29;20039;-73
2022/12/13 14:26:47;;;;;;;15.93;8.87;;;;;;;;;;4915565;29;20039;-73
2022/12/13 14:29:14;;;;;;;15.77;9.10;;;;;;;;;;4929202;29;20036;-75
2022/12/13 14:31:40;;;;;;;13.17;8.17;;;;;;;;;;4926117;29;20518;-74
2022/12/13 14:34:07;;;;;;;13.87;8.23;;;;;;;;;;4933707;29;20486;-74
2022/12/13 14:36:37;;;;;;;13.23;8.30;;;;;;;;;;4902545;29;20048;-74
2022/12/13 14:39:05;;;;;;;15.18;8.60;;;;;;;;;;4917354;29;20046;-74
2022/12/13 14:41:32;;;;;;;16.00;8.93;;;;;;;;;;4933295;29;20487;-74
2022/12/13 14:44:18;;;;;;;17.77;8.97;;;;;;;;;;4913310;29;20035;-72
2022/12/13 14:46:48;;;;;;;15.57;8.43;;;;;;;;;;4920844;29;20077;-72